sensor_id;sensor_type;location;lat;lon;timestamp;P1;durP1;ratioP1;P2;durP2;ratioP2
71570;SDS011;59407;42.682;23.322;2023-02-11T00:01:23;21.00;;;11.27;;
71570;SDS011;59407;42.682;23.322;2023-02-11T00:03:50;8.47;;;5.13;;
71570;SDS011;59407;42.682;23.322;2023-02-11T00:06:16;23.00;;;11.98;;
71570;SDS011;59407;42.682;23.322;2023-02-11T00:08:41;18.77;;;9.33;;
71570;SDS011;59407;42.682;23.322;2023-02-11T00:11:09;13.35;;;8.45;;
71570;SDS011;59407;42.682;23.322;2023-02-11T00:13:46;19.63;;;10.80;;
71570;SDS011;59407;42.682;23.322;2023-02-11T00:16:15;20.40;;;10.85;;
71570;SDS011;59407;42.682;23.322;2023-02-11T00:18:43;21.90;;;10.40;;
71570;SDS011;59407;42.682;23.322;2023-02-11T00:21:16;28.63;;;12.20;;
71570;SDS011;59407;42.682;23.322;2023-02-11T00:23:43;23.63;;;11.03;;
71570;SDS011;59407;42.682;23.322;2023-02-11T00:26:19;20.20;;;10.30;;
71570;SDS011;59407;42.682;23.322;2023-02-11T00:28:50;23.65;;;9.77;;
71570;SDS011;59407;42.682;23.322;2023-02-11T00:31:16;16.83;;;9.00;;
71570;SDS011;59407;42.682;23.322;2023-02-11T00:33:45;19.30;;;10.10;;
71570;SDS011;59407;42.682;23.322;2023-02-11T00:36:13;20.67;;;9.53;;
71570;SDS011;59407;42.682;23.322;2023-02-11T00:38:41;14.32;;;7.28;;
71570;SDS011;59407;42.682;23.322;2023-02-11T00:41:08;25.83;;;11.00;;
71570;SDS011;59407;42.682;23.322;2023-02-11T00:43:34;20.70;;;10.60;;
71570;SDS011;59407;42.682;23.322;2023-02-11T00:45:59;21.42;;;10.48;;
71570;SDS011;59407;42.682;23.322;2023-02-11T00:48:25;21.90;;;10.20;;
71570;SDS011;59407;42.682;23.322;2023-02-11T00:50:50;20.50;;;9.27;;
71570;SDS011;59407;42.682;23.322;2023-02-11T00:53:15;16.35;;;8.65;;
71570;SDS011;59407;42.682;23.322;2023-02-11T00:55:41;18.67;;;8.83;;
71570;SDS011;59407;42.682;23.322;2023-02-11T00:58:06;16.90;;;8.43;;
71570;SDS011;59407;42.682;23.322;2023-02-11T01:00:32;15.77;;;8.17;;
71570;SDS011;59407;42.682;23.322;2023-02-11T01:02:57;14.18;;;6.40;;
71570;SDS011;59407;42.682;23.322;2023-02-11T01:05:22;17.58;;;8.93;;
71570;SDS011;59407;42.682;23.322;2023-02-11T01:07:48;20.27;;;8.23;;
71570;SDS011;59407;42.682;23.322;2023-02-11T01:10:13;18.00;;;9.73;;
71570;SDS011;59407;42.682;23.322;2023-02-11T01:12:39;16.27;;;8.47;;
71570;SDS011;59407;42.682;23.322;2023-02-11T01:15:08;18.55;;;7.90;;
71570;SDS011;59407;42.682;23.322;2023-02-11T01:17:34;17.87;;;9.63;;
71570;SDS011;59407;42.682;23.322;2023-02-11T01:20:07;18.42;;;9.48;;
71570;SDS011;59407;42.682;23.322;2023-02-11T01:22:35;19.42;;;9.77;;
71570;SDS011;59407;42.682;23.322;2023-02-11T01:25:03;20.60;;;11.73;;
71570;SDS011;59407;42.682;23.322;2023-02-11T01:27:29;20.63;;;10.80;;
71570;SDS011;59407;42.682;23.322;2023-02-11T01:29:55;8.77;;;4.23;;
71570;SDS011;59407;42.682;23.322;2023-02-11T01:32:20;19.70;;;11.13;;
71570;SDS011;59407;42.682;23.322;2023-02-11T01:34:46;22.37;;;10.93;;
71570;SDS011;59407;42.682;23.322;2023-02-11T01:37:11;20.80;;;10.70;;
71570;SDS011;59407;42.682;23.322;2023-02-11T01:39:36;17.88;;;9.00;;
71570;SDS011;59407;42.682;23.322;2023-02-11T01:42:02;19.23;;;8.20;;
71570;SDS011;59407;42.682;23.322;2023-02-11T01:44:32;22.73;;;9.43;;
71570;SDS011;59407;42.682;23.322;2023-02-11T01:46:59;15.05;;;8.32;;
71570;SDS011;59407;42.682;23.322;2023-02-11T01:49:27;15.07;;;8.18;;
71570;SDS011;59407;42.682;23.322;2023-02-11T01:54:27;21.97;;;11.50;;
71570;SDS011;59407;42.682;23.322;2023-02-11T01:57:14;16.63;;;9.18;;
71570;SDS011;59407;42.682;23.322;2023-02-11T02:05:16;21.35;;;8.82;;
71570;SDS011;59407;42.682;23.322;2023-02-11T02:10:48;13.60;;;6.10;;
71570;SDS011;59407;42.682;23.322;2023-02-11T02:13:17;19.42;;;9.40;;
71570;SDS011;59407;42.682;23.322;2023-02-11T02:15:53;24.85;;;10.50;;
71570;SDS011;59407;42.682;23.322;2023-02-11T02:24:27;15.65;;;8.82;;
71570;SDS011;59407;42.682;23.322;2023-02-11T02:38:11;20.77;;;10.48;;
71570;SDS011;59407;42.682;23.322;2023-02-11T02:40:42;19.52;;;11.45;;
71570;SDS011;59407;42.682;23.322;2023-02-11T02:43:10;18.42;;;10.65;;
71570;SDS011;59407;42.682;23.322;2023-02-11T02:45:37;15.23;;;7.43;;
71570;SDS011;59407;42.682;23.322;2023-02-11T02:48:03;22.38;;;10.73;;
71570;SDS011;59407;42.682;23.322;2023-02-11T02:50:30;20.40;;;9.87;;
71570;SDS011;59407;42.682;23.322;2023-02-11T02:55:36;18.95;;;9.43;;
71570;SDS011;59407;42.682;23.322;2023-02-11T03:00:42;14.50;;;7.80;;
71570;SDS011;59407;42.682;23.322;2023-02-11T03:03:33;22.73;;;9.60;;
71570;SDS011;59407;42.682;23.322;2023-02-11T03:06:01;20.00;;;10.88;;
71570;SDS011;59407;42.682;23.322;2023-02-11T03:08:42;17.77;;;9.25;;
71570;SDS011;59407;42.682;23.322;2023-02-11T03:11:10;20.02;;;9.85;;
71570;SDS011;59407;42.682;23.322;2023-02-11T03:13:37;17.42;;;10.00;;
71570;SDS011;59407;42.682;23.322;2023-02-11T03:16:08;19.65;;;10.60;;
71570;SDS011;59407;42.682;23.322;2023-02-11T03:18:38;16.77;;;9.80;;
71570;SDS011;59407;42.682;23.322;2023-02-11T03:21:06;15.15;;;8.38;;
71570;SDS011;59407;42.682;23.322;2023-02-11T03:23:39;11.20;;;6.45;;
71570;SDS011;59407;42.682;23.322;2023-02-11T03:26:15;18.98;;;10.60;;
71570;SDS011;59407;42.682;23.322;2023-02-11T03:31:35;21.15;;;11.25;;
71570;SDS011;59407;42.682;23.322;2023-02-11T03:34:06;19.75;;;9.82;;
71570;SDS011;59407;42.682;23.322;2023-02-11T03:36:56;19.13;;;10.65;;
71570;SDS011;59407;42.682;23.322;2023-02-11T03:39:26;26.08;;;11.55;;
71570;SDS011;59407;42.682;23.322;2023-02-11T03:41:55;28.00;;;11.52;;
71570;SDS011;59407;42.682;23.322;2023-02-11T03:44:22;18.35;;;8.52;;
71570;SDS011;59407;42.682;23.322;2023-02-11T03:46:50;21.13;;;10.47;;
71570;SDS011;59407;42.682;23.322;2023-02-11T03:49:17;26.00;;;11.35;;
71570;SDS011;59407;42.682;23.322;2023-02-11T03:51:44;20.70;;;10.77;;
71570;SDS011;59407;42.682;23.322;2023-02-11T03:54:17;19.77;;;10.93;;
71570;SDS011;59407;42.682;23.322;2023-02-11T03:56:48;12.18;;;6.13;;
71570;SDS011;59407;42.682;23.322;2023-02-11T03:59:16;19.90;;;11.25;;
71570;SDS011;59407;42.682;23.322;2023-02-11T04:01:42;20.83;;;9.70;;
71570;SDS011;59407;42.682;23.322;2023-02-11T04:04:07;19.77;;;10.67;;
71570;SDS011;59407;42.682;23.322;2023-02-11T04:06:33;20.47;;;10.37;;
71570;SDS011;59407;42.682;23.322;2023-02-11T04:08:58;24.97;;;10.30;;
71570;SDS011;59407;42.682;23.322;2023-02-11T04:11:24;19.23;;;9.68;;
71570;SDS011;59407;42.682;23.322;2023-02-11T04:13:49;22.90;;;10.60;;
71570;SDS011;59407;42.682;23.322;2023-02-11T04:16:14;23.67;;;10.97;;
71570;SDS011;59407;42.682;23.322;2023-02-11T04:18:40;19.33;;;10.63;;
71570;SDS011;59407;42.682;23.322;2023-02-11T04:21:05;21.80;;;10.07;;
71570;SDS011;59407;42.682;23.322;2023-02-11T04:23:31;19.23;;;9.05;;
71570;SDS011;59407;42.682;23.322;2023-02-11T04:25:56;28.47;;;11.73;;
71570;SDS011;59407;42.682;23.322;2023-02-11T04:28:22;23.87;;;12.17;;
71570;SDS011;59407;42.682;23.322;2023-02-11T04:30:48;20.70;;;10.57;;
71570;SDS011;59407;42.682;23.322;2023-02-11T04:33:15;31.13;;;13.07;;
71570;SDS011;59407;42.682;23.322;2023-02-11T04:35:40;22.45;;;10.80;;
71570;SDS011;59407;42.682;23.322;2023-02-11T04:38:08;14.45;;;7.63;;
71570;SDS011;59407;42.682;23.322;2023-02-11T04:40:34;21.33;;;9.38;;
71570;SDS011;59407;42.682;23.322;2023-02-11T04:42:59;12.70;;;7.43;;
71570;SDS011;59407;42.682;23.322;2023-02-11T04:45:24;15.63;;;8.27;;
71570;SDS011;59407;42.682;23.322;2023-02-11T04:47:50;18.50;;;10.85;;
71570;SDS011;59407;42.682;23.322;2023-02-11T04:50:15;26.97;;;11.47;;
71570;SDS011;59407;42.682;23.322;2023-02-11T04:52:41;13.33;;;7.50;;
71570;SDS011;59407;42.682;23.322;2023-02-11T04:55:06;24.63;;;13.23;;
71570;SDS011;59407;42.682;23.322;2023-02-11T04:57:32;25.65;;;12.15;;
71570;SDS011;59407;42.682;23.322;2023-02-11T04:59:59;22.40;;;11.43;;
71570;SDS011;59407;42.682;23.322;2023-02-11T05:02:24;27.92;;;12.68;;
71570;SDS011;59407;42.682;23.322;2023-02-11T05:04:50;20.57;;;9.90;;
71570;SDS011;59407;42.682;23.322;2023-02-11T05:07:15;28.40;;;14.70;;
71570;SDS011;59407;42.682;23.322;2023-02-11T05:09:41;37.95;;;19.33;;
71570;SDS011;59407;42.682;23.322;2023-02-11T05:12:06;37.30;;;18.17;;
71570;SDS011;59407;42.682;23.322;2023-02-11T05:14:32;43.80;;;24.17;;
71570;SDS011;59407;42.682;23.322;2023-02-11T05:16:57;41.77;;;21.30;;
71570;SDS011;59407;42.682;23.322;2023-02-11T05:19:23;44.55;;;22.55;;
71570;SDS011;59407;42.682;23.322;2023-02-11T05:21:48;42.70;;;21.83;;
71570;SDS011;59407;42.682;23.322;2023-02-11T05:24:13;40.37;;;20.10;;
71570;SDS011;59407;42.682;23.322;2023-02-11T05:26:39;44.13;;;22.13;;
71570;SDS011;59407;42.682;23.322;2023-02-11T05:29:04;33.47;;;17.55;;
71570;SDS011;59407;42.682;23.322;2023-02-11T05:31:30;30.52;;;13.07;;
71570;SDS011;59407;42.682;23.322;2023-02-11T05:33:56;30.03;;;17.23;;
71570;SDS011;59407;42.682;23.322;2023-02-11T05:36:22;33.78;;;16.30;;
71570;SDS011;59407;42.682;23.322;2023-02-11T05:38:47;31.67;;;16.53;;
71570;SDS011;59407;42.682;23.322;2023-02-11T05:41:13;24.17;;;14.33;;
71570;SDS011;59407;42.682;23.322;2023-02-11T05:43:38;25.03;;;11.93;;
71570;SDS011;59407;42.682;23.322;2023-02-11T05:46:04;32.83;;;18.05;;
71570;SDS011;59407;42.682;23.322;2023-02-11T05:48:31;31.23;;;15.63;;
71570;SDS011;59407;42.682;23.322;2023-02-11T05:50:56;22.20;;;12.53;;
71570;SDS011;59407;42.682;23.322;2023-02-11T05:53:22;35.97;;;16.70;;
71570;SDS011;59407;42.682;23.322;2023-02-11T05:55:47;30.25;;;14.68;;
71570;SDS011;59407;42.682;23.322;2023-02-11T05:58:13;32.63;;;16.50;;
71570;SDS011;59407;42.682;23.322;2023-02-11T06:00:38;29.53;;;16.10;;
71570;SDS011;59407;42.682;23.322;2023-02-11T06:03:04;24.95;;;14.88;;
71570;SDS011;59407;42.682;23.322;2023-02-11T06:05:30;26.03;;;14.80;;
71570;SDS011;59407;42.682;23.322;2023-02-11T06:07:55;29.02;;;14.73;;
71570;SDS011;59407;42.682;23.322;2023-02-11T06:10:21;29.77;;;14.97;;
71570;SDS011;59407;42.682;23.322;2023-02-11T06:12:46;31.00;;;16.80;;
71570;SDS011;59407;42.682;23.322;2023-02-11T06:15:12;28.30;;;16.47;;
71570;SDS011;59407;42.682;23.322;2023-02-11T06:17:37;32.30;;;16.48;;
71570;SDS011;59407;42.682;23.322;2023-02-11T06:20:03;29.00;;;14.97;;
71570;SDS011;59407;42.682;23.322;2023-02-11T06:22:30;19.50;;;12.13;;
71570;SDS011;59407;42.682;23.322;2023-02-11T06:24:56;28.00;;;13.80;;
71570;SDS011;59407;42.682;23.322;2023-02-11T06:27:21;23.53;;;13.77;;
71570;SDS011;59407;42.682;23.322;2023-02-11T06:29:46;27.43;;;13.83;;
71570;SDS011;59407;42.682;23.322;2023-02-11T06:32:12;27.95;;;13.80;;
71570;SDS011;59407;42.682;23.322;2023-02-11T06:34:38;23.00;;;11.90;;
71570;SDS011;59407;42.682;23.322;2023-02-11T06:37:04;30.35;;;15.05;;
71570;SDS011;59407;42.682;23.322;2023-02-11T06:39:29;26.00;;;14.48;;
71570;SDS011;59407;42.682;23.322;2023-02-11T06:41:54;30.97;;;14.87;;
71570;SDS011;59407;42.682;23.322;2023-02-11T06:44:20;34.38;;;16.30;;
71570;SDS011;59407;42.682;23.322;2023-02-11T06:46:45;31.80;;;14.03;;
71570;SDS011;59407;42.682;23.322;2023-02-11T06:49:11;30.90;;;15.87;;
71570;SDS011;59407;42.682;23.322;2023-02-11T06:51:37;32.80;;;16.05;;
71570;SDS011;59407;42.682;23.322;2023-02-11T06:54:03;21.77;;;12.93;;
71570;SDS011;59407;42.682;23.322;2023-02-11T06:56:29;28.67;;;14.13;;
71570;SDS011;59407;42.682;23.322;2023-02-11T06:58:55;24.23;;;13.90;;
71570;SDS011;59407;42.682;23.322;2023-02-11T07:01:21;27.80;;;13.85;;
71570;SDS011;59407;42.682;23.322;2023-02-11T07:03:47;25.33;;;14.57;;
71570;SDS011;59407;42.682;23.322;2023-02-11T07:06:14;34.47;;;15.07;;
71570;SDS011;59407;42.682;23.322;2023-02-11T07:08:42;29.92;;;13.77;;
71570;SDS011;59407;42.682;23.322;2023-02-11T07:11:14;22.92;;;10.02;;
71570;SDS011;59407;42.682;23.322;2023-02-11T07:13:41;25.73;;;13.02;;
71570;SDS011;59407;42.682;23.322;2023-02-11T07:16:08;27.70;;;13.70;;
71570;SDS011;59407;42.682;23.322;2023-02-11T07:18:35;28.83;;;12.95;;
71570;SDS011;59407;42.682;23.322;2023-02-11T07:21:04;27.38;;;14.05;;
71570;SDS011;59407;42.682;23.322;2023-02-11T07:23:30;20.15;;;9.52;;
71570;SDS011;59407;42.682;23.322;2023-02-11T07:25:56;31.15;;;14.15;;
71570;SDS011;59407;42.682;23.322;2023-02-11T07:28:21;14.57;;;9.43;;
71570;SDS011;59407;42.682;23.322;2023-02-11T07:30:47;18.67;;;9.03;;
71570;SDS011;59407;42.682;23.322;2023-02-11T07:33:12;25.02;;;13.18;;
71570;SDS011;59407;42.682;23.322;2023-02-11T07:35:37;22.27;;;13.20;;
71570;SDS011;59407;42.682;23.322;2023-02-11T07:38:03;32.57;;;15.13;;
71570;SDS011;59407;42.682;23.322;2023-02-11T07:40:28;29.57;;;15.30;;
71570;SDS011;59407;42.682;23.322;2023-02-11T07:42:55;30.17;;;13.88;;
71570;SDS011;59407;42.682;23.322;2023-02-11T07:45:21;32.08;;;17.55;;
71570;SDS011;59407;42.682;23.322;2023-02-11T07:47:46;29.85;;;14.43;;
71570;SDS011;59407;42.682;23.322;2023-02-11T07:50:12;29.70;;;13.50;;
71570;SDS011;59407;42.682;23.322;2023-02-11T07:52:37;15.77;;;6.93;;
71570;SDS011;59407;42.682;23.322;2023-02-11T07:55:03;33.95;;;15.45;;
71570;SDS011;59407;42.682;23.322;2023-02-11T07:57:28;27.95;;;14.32;;
71570;SDS011;59407;42.682;23.322;2023-02-11T07:59:54;31.50;;;13.97;;
71570;SDS011;59407;42.682;23.322;2023-02-11T08:02:19;28.83;;;14.43;;
71570;SDS011;59407;42.682;23.322;2023-02-11T08:04:45;18.90;;;10.25;;
71570;SDS011;59407;42.682;23.322;2023-02-11T08:07:13;25.60;;;13.65;;
71570;SDS011;59407;42.682;23.322;2023-02-11T08:09:40;28.30;;;14.48;;
71570;SDS011;59407;42.682;23.322;2023-02-11T08:12:05;27.25;;;12.45;;
71570;SDS011;59407;42.682;23.322;2023-02-11T08:14:31;23.87;;;12.13;;
71570;SDS011;59407;42.682;23.322;2023-02-11T08:16:56;27.57;;;14.53;;
71570;SDS011;59407;42.682;23.322;2023-02-11T08:19:22;31.92;;;15.75;;
71570;SDS011;59407;42.682;23.322;2023-02-11T08:21:48;24.37;;;11.30;;
71570;SDS011;59407;42.682;23.322;2023-02-11T08:24:13;29.40;;;13.73;;
71570;SDS011;59407;42.682;23.322;2023-02-11T08:26:39;40.78;;;17.48;;
71570;SDS011;59407;42.682;23.322;2023-02-11T08:29:09;24.27;;;12.43;;
71570;SDS011;59407;42.682;23.322;2023-02-11T08:31:37;26.52;;;13.35;;
71570;SDS011;59407;42.682;23.322;2023-02-11T08:34:04;25.40;;;13.32;;
71570;SDS011;59407;42.682;23.322;2023-02-11T08:36:33;30.07;;;14.90;;
71570;SDS011;59407;42.682;23.322;2023-02-11T08:39:01;27.17;;;11.55;;
71570;SDS011;59407;42.682;23.322;2023-02-11T08:41:29;28.10;;;13.50;;
71570;SDS011;59407;42.682;23.322;2023-02-11T08:43:55;23.23;;;13.52;;
71570;SDS011;59407;42.682;23.322;2023-02-11T08:46:21;17.23;;;9.53;;
71570;SDS011;59407;42.682;23.322;2023-02-11T08:48:46;24.23;;;13.50;;
71570;SDS011;59407;42.682;23.322;2023-02-11T08:51:16;30.42;;;12.93;;
71570;SDS011;59407;42.682;23.322;2023-02-11T08:53:43;30.27;;;14.27;;
71570;SDS011;59407;42.682;23.322;2023-02-11T08:56:09;24.55;;;13.38;;
71570;SDS011;59407;42.682;23.322;2023-02-11T08:58:35;25.08;;;12.68;;
71570;SDS011;59407;42.682;23.322;2023-02-11T09:01:01;27.27;;;13.07;;
71570;SDS011;59407;42.682;23.322;2023-02-11T09:03:26;28.33;;;14.17;;
71570;SDS011;59407;42.682;23.322;2023-02-11T09:05:52;20.43;;;10.57;;
71570;SDS011;59407;42.682;23.322;2023-02-11T09:08:17;22.43;;;13.03;;
71570;SDS011;59407;42.682;23.322;2023-02-11T09:10:43;21.48;;;11.85;;
71570;SDS011;59407;42.682;23.322;2023-02-11T09:13:09;25.88;;;13.10;;
71570;SDS011;59407;42.682;23.322;2023-02-11T09:15:34;30.43;;;15.13;;
71570;SDS011;59407;42.682;23.322;2023-02-11T09:18:00;27.10;;;13.60;;
71570;SDS011;59407;42.682;23.322;2023-02-11T09:20:26;22.80;;;11.27;;
71570;SDS011;59407;42.682;23.322;2023-02-11T09:22:52;30.65;;;13.98;;
71570;SDS011;59407;42.682;23.322;2023-02-11T09:25:19;25.67;;;13.40;;
71570;SDS011;59407;42.682;23.322;2023-02-11T09:27:44;22.25;;;11.40;;
71570;SDS011;59407;42.682;23.322;2023-02-11T09:30:10;23.50;;;11.50;;
71570;SDS011;59407;42.682;23.322;2023-02-11T09:32:39;19.17;;;9.25;;
71570;SDS011;59407;42.682;23.322;2023-02-11T09:35:04;24.37;;;11.27;;
71570;SDS011;59407;42.682;23.322;2023-02-11T09:37:30;16.15;;;8.68;;
71570;SDS011;59407;42.682;23.322;2023-02-11T09:39:55;25.67;;;11.10;;
71570;SDS011;59407;42.682;23.322;2023-02-11T09:45:10;22.83;;;11.48;;
71570;SDS011;59407;42.682;23.322;2023-02-11T09:48:01;23.02;;;10.93;;
71570;SDS011;59407;42.682;23.322;2023-02-11T09:50:33;18.40;;;9.25;;
71570;SDS011;59407;42.682;23.322;2023-02-11T09:53:10;22.47;;;8.37;;
71570;SDS011;59407;42.682;23.322;2023-02-11T09:55:38;16.83;;;8.48;;
71570;SDS011;59407;42.682;23.322;2023-02-11T09:58:11;18.33;;;10.13;;
71570;SDS011;59407;42.682;23.322;2023-02-11T10:03:58;12.30;;;6.93;;
71570;SDS011;59407;42.682;23.322;2023-02-11T10:22:20;21.83;;;10.65;;
71570;SDS011;59407;42.682;23.322;2023-02-11T10:24:56;24.03;;;10.27;;
71570;SDS011;59407;42.682;23.322;2023-02-11T10:27:29;16.63;;;9.35;;
71570;SDS011;59407;42.682;23.322;2023-02-11T10:30:02;21.63;;;11.27;;
71570;SDS011;59407;42.682;23.322;2023-02-11T10:32:51;23.75;;;10.43;;
71570;SDS011;59407;42.682;23.322;2023-02-11T10:35:22;24.60;;;11.35;;
71570;SDS011;59407;42.682;23.322;2023-02-11T10:37:48;22.87;;;11.50;;
71570;SDS011;59407;42.682;23.322;2023-02-11T10:40:14;26.63;;;10.48;;
71570;SDS011;59407;42.682;23.322;2023-02-11T10:42:42;20.20;;;9.95;;
71570;SDS011;59407;42.682;23.322;2023-02-11T10:45:14;16.77;;;8.45;;
71570;SDS011;59407;42.682;23.322;2023-02-11T10:47:43;16.20;;;7.83;;
71570;SDS011;59407;42.682;23.322;2023-02-11T10:50:19;16.55;;;8.60;;
71570;SDS011;59407;42.682;23.322;2023-02-11T10:52:45;19.17;;;7.40;;
71570;SDS011;59407;42.682;23.322;2023-02-11T10:55:15;20.58;;;10.32;;
71570;SDS011;59407;42.682;23.322;2023-02-11T11:03:23;14.93;;;8.15;;
71570;SDS011;59407;42.682;23.322;2023-02-11T11:05:51;22.80;;;9.65;;
71570;SDS011;59407;42.682;23.322;2023-02-11T11:08:17;18.67;;;8.35;;
71570;SDS011;59407;42.682;23.322;2023-02-11T11:11:03;15.88;;;8.52;;
71570;SDS011;59407;42.682;23.322;2023-02-11T11:13:31;16.20;;;8.43;;
71570;SDS011;59407;42.682;23.322;2023-02-11T11:16:08;18.98;;;8.23;;
71570;SDS011;59407;42.682;23.322;2023-02-11T11:18:41;12.68;;;7.38;;
71570;SDS011;59407;42.682;23.322;2023-02-11T11:21:15;11.73;;;5.50;;
71570;SDS011;59407;42.682;23.322;2023-02-11T11:23:48;19.23;;;9.30;;
71570;SDS011;59407;42.682;23.322;2023-02-11T11:26:18;14.65;;;7.63;;
71570;SDS011;59407;42.682;23.322;2023-02-11T11:31:30;14.38;;;8.18;;
71570;SDS011;59407;42.682;23.322;2023-02-11T11:33:59;14.48;;;7.40;;
71570;SDS011;59407;42.682;23.322;2023-02-11T11:36:59;17.95;;;8.60;;
71570;SDS011;59407;42.682;23.322;2023-02-11T11:39:24;17.70;;;7.23;;
71570;SDS011;59407;42.682;23.322;2023-02-11T11:41:53;15.07;;;7.55;;
71570;SDS011;59407;42.682;23.322;2023-02-11T11:44:30;9.45;;;4.68;;
71570;SDS011;59407;42.682;23.322;2023-02-11T11:58:00;15.02;;;9.00;;
71570;SDS011;59407;42.682;23.322;2023-02-11T12:00:28;11.17;;;6.53;;
71570;SDS011;59407;42.682;23.322;2023-02-11T12:03:16;14.68;;;7.40;;
71570;SDS011;59407;42.682;23.322;2023-02-11T12:08:41;15.45;;;7.80;;
71570;SDS011;59407;42.682;23.322;2023-02-11T12:13:59;11.03;;;6.13;;
71570;SDS011;59407;42.682;23.322;2023-02-11T12:19:32;11.10;;;5.63;;
71570;SDS011;59407;42.682;23.322;2023-02-11T12:22:09;10.85;;;6.57;;
71570;SDS011;59407;42.682;23.322;2023-02-11T12:35:51;12.50;;;5.95;;
71570;SDS011;59407;42.682;23.322;2023-02-11T12:41:41;10.70;;;5.03;;
71570;SDS011;59407;42.682;23.322;2023-02-11T12:55:45;14.30;;;7.55;;
71570;SDS011;59407;42.682;23.322;2023-02-11T12:58:17;12.18;;;6.40;;
71570;SDS011;59407;42.682;23.322;2023-02-11T13:00:52;15.40;;;6.78;;
71570;SDS011;59407;42.682;23.322;2023-02-11T13:03:24;14.07;;;7.13;;
71570;SDS011;59407;42.682;23.322;2023-02-11T13:05:56;12.55;;;6.25;;
71570;SDS011;59407;42.682;23.322;2023-02-11T13:11:16;15.38;;;7.55;;
71570;SDS011;59407;42.682;23.322;2023-02-11T13:14:04;9.68;;;3.90;;
71570;SDS011;59407;42.682;23.322;2023-02-11T13:16:42;12.55;;;7.25;;
71570;SDS011;59407;42.682;23.322;2023-02-11T13:27:17;13.13;;;6.50;;
71570;SDS011;59407;42.682;23.322;2023-02-11T13:29:54;14.25;;;6.13;;
71570;SDS011;59407;42.682;23.322;2023-02-11T13:32:24;13.48;;;6.82;;
71570;SDS011;59407;42.682;23.322;2023-02-11T13:34:54;16.57;;;7.53;;
71570;SDS011;59407;42.682;23.322;2023-02-11T13:39:56;12.07;;;6.40;;
71570;SDS011;59407;42.682;23.322;2023-02-11T13:42:24;8.20;;;4.28;;
71570;SDS011;59407;42.682;23.322;2023-02-11T13:44:50;14.02;;;7.38;;
71570;SDS011;59407;42.682;23.322;2023-02-11T13:47:26;13.00;;;6.77;;
71570;SDS011;59407;42.682;23.322;2023-02-11T13:49:58;11.13;;;6.20;;
71570;SDS011;59407;42.682;23.322;2023-02-11T13:52:34;12.00;;;5.32;;
71570;SDS011;59407;42.682;23.322;2023-02-11T13:55:04;10.65;;;5.32;;
71570;SDS011;59407;42.682;23.322;2023-02-11T13:57:40;10.50;;;5.33;;
71570;SDS011;59407;42.682;23.322;2023-02-11T14:00:41;11.45;;;6.63;;
71570;SDS011;59407;42.682;23.322;2023-02-11T14:09:36;9.90;;;5.13;;
71570;SDS011;59407;42.682;23.322;2023-02-11T14:14:16;9.15;;;5.45;;
71570;SDS011;59407;42.682;23.322;2023-02-11T14:17:33;10.38;;;5.90;;
71570;SDS011;59407;42.682;23.322;2023-02-11T14:19:40;12.60;;;6.82;;
71570;SDS011;59407;42.682;23.322;2023-02-11T14:22:46;7.95;;;3.63;;
71570;SDS011;59407;42.682;23.322;2023-02-11T14:25:19;11.87;;;5.03;;
71570;SDS011;59407;42.682;23.322;2023-02-11T14:27:48;13.73;;;6.03;;
71570;SDS011;59407;42.682;23.322;2023-02-11T14:41:25;14.75;;;7.20;;
71570;SDS011;59407;42.682;23.322;2023-02-11T14:43:57;17.77;;;8.65;;
71570;SDS011;59407;42.682;23.322;2023-02-11T14:46:24;24.92;;;9.25;;
71570;SDS011;59407;42.682;23.322;2023-02-11T14:48:53;15.70;;;8.48;;
71570;SDS011;59407;42.682;23.322;2023-02-11T14:51:23;18.47;;;8.63;;
71570;SDS011;59407;42.682;23.322;2023-02-11T14:54:00;11.77;;;6.30;;
71570;SDS011;59407;42.682;23.322;2023-02-11T14:56:29;10.07;;;4.45;;
71570;SDS011;59407;42.682;23.322;2023-02-11T14:58:56;14.18;;;7.97;;
71570;SDS011;59407;42.682;23.322;2023-02-11T15:01:32;14.27;;;7.53;;
71570;SDS011;59407;42.682;23.322;2023-02-11T15:04:02;17.00;;;7.90;;
71570;SDS011;59407;42.682;23.322;2023-02-11T15:11:33;15.40;;;8.68;;
71570;SDS011;59407;42.682;23.322;2023-02-11T15:14:35;14.00;;;8.70;;
71570;SDS011;59407;42.682;23.322;2023-02-11T15:16:59;14.30;;;7.13;;
71570;SDS011;59407;42.682;23.322;2023-02-11T15:19:37;13.63;;;7.68;;
71570;SDS011;59407;42.682;23.322;2023-02-11T15:22:06;16.95;;;9.35;;
71570;SDS011;59407;42.682;23.322;2023-02-11T15:24:42;14.82;;;7.97;;
71570;SDS011;59407;42.682;23.322;2023-02-11T15:29:38;18.27;;;8.53;;
71570;SDS011;59407;42.682;23.322;2023-02-11T15:34:33;19.52;;;9.65;;
71570;SDS011;59407;42.682;23.322;2023-02-11T15:36:59;15.95;;;9.88;;
71570;SDS011;59407;42.682;23.322;2023-02-11T15:44:45;26.02;;;10.73;;
71570;SDS011;59407;42.682;23.322;2023-02-11T15:47:11;23.17;;;11.50;;
71570;SDS011;59407;42.682;23.322;2023-02-11T15:49:44;23.63;;;12.23;;
71570;SDS011;59407;42.682;23.322;2023-02-11T15:52:11;19.60;;;11.60;;
71570;SDS011;59407;42.682;23.322;2023-02-11T15:54:38;21.00;;;10.65;;
71570;SDS011;59407;42.682;23.322;2023-02-11T15:57:05;21.00;;;11.23;;
71570;SDS011;59407;42.682;23.322;2023-02-11T15:59:34;19.85;;;10.35;;
71570;SDS011;59407;42.682;23.322;2023-02-11T16:02:08;22.33;;;11.90;;
71570;SDS011;59407;42.682;23.322;2023-02-11T16:04:46;17.57;;;9.73;;
71570;SDS011;59407;42.682;23.322;2023-02-11T16:10:15;18.90;;;11.02;;
71570;SDS011;59407;42.682;23.322;2023-02-11T16:12:50;16.73;;;10.50;;
71570;SDS011;59407;42.682;23.322;2023-02-11T16:15:40;24.58;;;12.48;;
71570;SDS011;59407;42.682;23.322;2023-02-11T16:18:13;24.53;;;11.07;;
71570;SDS011;59407;42.682;23.322;2023-02-11T16:20:59;19.15;;;9.35;;
71570;SDS011;59407;42.682;23.322;2023-02-11T16:23:30;17.00;;;8.13;;
71570;SDS011;59407;42.682;23.322;2023-02-11T16:26:45;15.48;;;8.02;;
71570;SDS011;59407;42.682;23.322;2023-02-11T16:28:52;14.70;;;8.02;;
71570;SDS011;59407;42.682;23.322;2023-02-11T16:31:17;14.03;;;6.73;;
71570;SDS011;59407;42.682;23.322;2023-02-11T16:33:43;18.50;;;9.65;;
71570;SDS011;59407;42.682;23.322;2023-02-11T16:36:10;18.70;;;9.77;;
71570;SDS011;59407;42.682;23.322;2023-02-11T16:38:37;21.98;;;10.52;;
71570;SDS011;59407;42.682;23.322;2023-02-11T16:41:02;17.90;;;8.33;;
71570;SDS011;59407;42.682;23.322;2023-02-11T16:43:28;16.00;;;8.20;;
71570;SDS011;59407;42.682;23.322;2023-02-11T16:45:53;19.47;;;8.37;;
71570;SDS011;59407;42.682;23.322;2023-02-11T16:48:19;13.60;;;6.77;;
71570;SDS011;59407;42.682;23.322;2023-02-11T16:50:46;19.03;;;10.43;;
71570;SDS011;59407;42.682;23.322;2023-02-11T16:53:14;19.75;;;9.80;;
71570;SDS011;59407;42.682;23.322;2023-02-11T16:55:42;12.65;;;6.63;;
71570;SDS011;59407;42.682;23.322;2023-02-11T16:58:08;16.80;;;9.33;;
71570;SDS011;59407;42.682;23.322;2023-02-11T17:00:34;20.80;;;12.27;;
71570;SDS011;59407;42.682;23.322;2023-02-11T17:03:00;22.35;;;11.32;;
71570;SDS011;59407;42.682;23.322;2023-02-11T17:05:25;23.92;;;12.10;;
71570;SDS011;59407;42.682;23.322;2023-02-11T17:07:51;27.00;;;13.10;;
71570;SDS011;59407;42.682;23.322;2023-02-11T17:10:18;24.03;;;13.60;;